createdAt,value
2017-12-14T00:01:24.781Z,2.60
2017-12-14T00:03:52.026Z,2.70
2017-12-14T00:06:18.339Z,2.70
2017-12-14T00:08:45.626Z,2.70
2017-12-14T00:11:12.735Z,2.80
2017-12-14T00:13:39.727Z,2.80
2017-12-14T00:16:06.679Z,2.80
2017-12-14T00:18:33.015Z,2.90
2017-12-14T00:20:59.342Z,3.00
2017-12-14T00:23:26.072Z,3.10
2017-12-14T00:25:53.152Z,3.10
2017-12-14T00:28:20.304Z,3.10
2017-12-14T00:30:47.647Z,3.20
2017-12-14T00:33:14.923Z,3.20
2017-12-14T00:35:42.151Z,3.30
2017-12-14T00:38:08.468Z,3.30
2017-12-14T00:40:34.799Z,3.30
2017-12-14T00:43:01.801Z,3.30
2017-12-14T00:45:30.084Z,3.40
2017-12-14T00:47:57.159Z,3.40
2017-12-14T00:50:23.541Z,3.40
2017-12-14T00:52:50.624Z,3.50
2017-12-14T00:55:16.984Z,3.40
2017-12-14T00:57:44.173Z,3.50
2017-12-14T01:00:10.504Z,3.50
2017-12-14T01:02:38.325Z,3.70
2017-12-14T01:05:04.649Z,3.70
2017-12-14T01:07:32.920Z,3.60
2017-12-14T01:09:59.209Z,3.70
2017-12-14T01:12:26.412Z,3.70
2017-12-14T01:14:52.708Z,3.50
2017-12-14T01:17:19.765Z,3.50
2017-12-14T01:19:47.061Z,3.50
2017-12-14T01:22:14.012Z,3.50
2017-12-14T01:24:40.320Z,3.50
2017-12-14T01:27:07.821Z,3.40
2017-12-14T01:29:34.872Z,3.40
2017-12-14T01:32:02.017Z,3.50
2017-12-14T01:34:28.301Z,3.50
2017-12-14T01:36:55.672Z,3.60
2017-12-14T01:39:22.720Z,3.70
2017-12-14T01:41:49.768Z,3.70
2017-12-14T01:44:16.412Z,3.70
2017-12-14T01:46:43.454Z,3.70
2017-12-14T01:49:10.876Z,3.70
2017-12-14T01:51:38.756Z,3.70
2017-12-14T01:54:05.800Z,3.70
2017-12-14T01:56:32.756Z,3.70
2017-12-14T01:58:59.905Z,3.70
2017-12-14T02:01:26.208Z,3.80
2017-12-14T02:03:54.237Z,4.00
2017-12-14T02:06:20.550Z,3.90
2017-12-14T02:08:46.974Z,4.00
2017-12-14T02:11:13.304Z,4.00
2017-12-14T02:13:41.198Z,4.00
2017-12-14T02:16:07.654Z,4.00
2017-12-14T02:18:33.950Z,3.90
2017-12-14T02:21:01.124Z,3.90
2017-12-14T02:23:27.468Z,3.90
2017-12-14T02:25:54.729Z,3.90
2017-12-14T02:28:22.700Z,3.80
2017-12-14T02:30:49.973Z,3.80
2017-12-14T02:33:17.010Z,3.80
2017-12-14T02:35:43.347Z,3.80
2017-12-14T02:38:09.667Z,3.90
2017-12-14T02:40:36.932Z,3.80
2017-12-14T02:43:04.194Z,3.80
2017-12-14T02:45:31.759Z,3.70
2017-12-14T02:47:58.657Z,3.70
2017-12-14T02:50:24.959Z,3.70
2017-12-14T02:52:51.997Z,3.60
2017-12-14T02:55:18.325Z,3.50
2017-12-14T02:57:45.491Z,3.50
2017-12-14T03:00:11.800Z,3.40
2017-12-14T03:02:38.152Z,3.40
2017-12-14T03:05:04.515Z,3.30
2017-12-14T03:07:30.838Z,3.30
2017-12-14T03:09:57.267Z,3.20
2017-12-14T03:12:24.321Z,3.20
2017-12-14T03:14:50.638Z,3.20
2017-12-14T03:17:17.615Z,3.20
2017-12-14T03:19:43.946Z,3.20
2017-12-14T03:22:10.250Z,3.20
2017-12-14T03:24:38.056Z,3.20
2017-12-14T03:27:05.817Z,3.20
2017-12-14T03:29:32.982Z,3.20
2017-12-14T03:32:00.148Z,3.20
2017-12-14T03:34:26.534Z,3.20
2017-12-14T03:36:54.544Z,3.20
2017-12-14T03:39:21.598Z,3.20
2017-12-14T03:41:47.946Z,3.30
2017-12-14T03:44:14.242Z,3.30
2017-12-14T03:46:41.528Z,3.30
2017-12-14T03:49:07.856Z,3.40
2017-12-14T03:51:34.200Z,3.40
2017-12-14T03:54:01.154Z,3.50
2017-12-14T03:56:28.300Z,3.40
2017-12-14T03:58:54.593Z,3.40
2017-12-14T04:01:21.640Z,3.30
2017-12-14T04:03:48.743Z,3.30
2017-12-14T04:06:15.037Z,3.20
2017-12-14T04:08:42.130Z,3.20
2017-12-14T04:11:08.495Z,3.20
2017-12-14T04:13:35.613Z,3.20
2017-12-14T04:16:04.015Z,3.20
2017-12-14T04:18:30.892Z,3.20
2017-12-14T04:20:57.228Z,3.20
2017-12-14T04:23:24.554Z,3.20
2017-12-14T04:25:51.717Z,3.20
2017-12-14T04:28:18.773Z,3.20
2017-12-14T04:30:46.109Z,3.20
2017-12-14T04:33:13.389Z,3.20
2017-12-14T04:35:40.532Z,3.30
2017-12-14T04:38:06.896Z,3.30
2017-12-14T04:40:33.976Z,3.40
2017-12-14T04:43:01.337Z,3.40
2017-12-14T04:45:28.332Z,3.40
2017-12-14T04:47:55.392Z,3.40
2017-12-14T04:50:21.744Z,3.40
2017-12-14T04:52:48.792Z,3.40
2017-12-14T04:55:15.126Z,3.30
2017-12-14T04:57:42.165Z,3.40
2017-12-14T05:00:08.504Z,3.40
2017-12-14T05:02:34.845Z,3.40
2017-12-14T05:05:02.209Z,3.40
2017-12-14T05:07:28.532Z,3.30
2017-12-14T05:09:54.901Z,3.30
2017-12-14T05:12:22.108Z,3.20
2017-12-14T05:14:48.437Z,3.30
2017-12-14T05:17:15.517Z,3.30
2017-12-14T05:19:42.989Z,3.20
2017-12-14T05:22:10.340Z,3.20
2017-12-14T05:24:37.409Z,3.20
2017-12-14T05:27:04.657Z,3.20
2017-12-14T05:29:30.997Z,3.20
2017-12-14T05:31:58.148Z,3.10
2017-12-14T05:34:25.266Z,3.00
2017-12-14T05:36:52.357Z,3.00
2017-12-14T05:39:18.701Z,2.90
2017-12-14T05:41:45.853Z,3.00
2017-12-14T05:44:13.168Z,3.00
2017-12-14T05:46:40.967Z,3.10
2017-12-14T05:49:07.365Z,3.10
2017-12-14T05:51:34.447Z,3.10
2017-12-14T05:54:01.421Z,3.10
2017-12-14T05:56:28.677Z,3.10
2017-12-14T05:58:55.021Z,3.10
2017-12-14T06:01:21.357Z,3.00
2017-12-14T06:03:48.509Z,3.10
2017-12-14T06:06:14.859Z,3.10
2017-12-14T06:08:41.200Z,3.00
2017-12-14T06:11:08.231Z,3.00
2017-12-14T06:13:34.584Z,2.90
2017-12-14T06:16:00.935Z,2.80
2017-12-14T06:18:27.960Z,2.70
2017-12-14T06:20:55.109Z,2.60
2017-12-14T06:23:21.458Z,2.60
2017-12-14T06:25:47.813Z,2.60
2017-12-14T06:28:14.561Z,2.50
2017-12-14T06:30:41.816Z,2.40
2017-12-14T06:33:09.252Z,2.40
2017-12-14T06:35:35.613Z,2.30
2017-12-14T06:38:01.945Z,2.30
2017-12-14T06:40:28.972Z,2.20
2017-12-14T06:42:55.301Z,2.20
2017-12-14T06:45:21.632Z,2.10
2017-12-14T06:47:48.692Z,2.10
2017-12-14T06:50:15.861Z,2.10
2017-12-14T06:52:42.888Z,2.10
2017-12-14T06:55:09.221Z,2.10
2017-12-14T06:57:36.342Z,2.10
2017-12-14T07:00:03.565Z,2.30
2017-12-14T07:02:30.611Z,2.30
2017-12-14T07:04:56.960Z,2.40
2017-12-14T07:07:24.197Z,2.50
2017-12-14T07:09:50.528Z,2.50
2017-12-14T07:12:17.805Z,2.60
2017-12-14T07:14:45.045Z,2.60
2017-12-14T07:17:12.000Z,2.60
2017-12-14T07:19:38.375Z,2.60
2017-12-14T07:22:05.589Z,2.60
2017-12-14T07:24:31.927Z,2.60
2017-12-14T07:26:58.268Z,2.60
2017-12-14T07:29:25.329Z,2.60
2017-12-14T07:31:52.379Z,2.70
2017-12-14T07:34:18.758Z,2.60
2017-12-14T07:36:45.103Z,2.70
2017-12-14T07:39:13.012Z,2.80
2017-12-14T07:41:39.405Z,2.70
2017-12-14T07:44:18.277Z,2.90
2017-12-14T07:46:58.432Z,2.90
2017-12-14T07:49:25.688Z,2.90
2017-12-14T07:51:52.029Z,3.00
2017-12-14T07:54:19.077Z,3.10
2017-12-14T07:56:46.137Z,3.20
2017-12-14T07:59:12.478Z,3.20
2017-12-14T08:01:39.628Z,3.20
2017-12-14T08:04:06.776Z,3.40
2017-12-14T08:06:33.824Z,3.40
2017-12-14T08:09:01.088Z,3.40
2017-12-14T08:11:27.440Z,3.40
2017-12-14T08:13:54.703Z,3.40
2017-12-14T08:16:21.661Z,3.40
2017-12-14T08:18:48.030Z,3.40
2017-12-14T08:21:15.176Z,3.50
2017-12-14T08:23:42.641Z,3.60
2017-12-14T08:26:09.764Z,3.70
2017-12-14T08:28:37.010Z,3.60
2017-12-14T08:31:03.362Z,3.70
2017-12-14T08:33:30.490Z,3.80
2017-12-14T08:35:57.866Z,3.90
2017-12-14T08:38:25.041Z,3.90
2017-12-14T08:40:51.400Z,4.00
2017-12-14T08:43:18.492Z,4.20
2017-12-14T08:45:45.258Z,4.20
2017-12-14T08:48:12.598Z,4.20
2017-12-14T08:50:39.759Z,4.20
2017-12-14T08:53:06.905Z,4.20
2017-12-14T08:55:33.266Z,4.20
2017-12-14T08:58:00.407Z,4.20
2017-12-14T09:00:26.772Z,4.20
2017-12-14T09:02:53.994Z,4.20
2017-12-14T09:05:20.362Z,4.20
2017-12-14T09:07:46.728Z,4.20
2017-12-14T09:10:14.850Z,4.10
2017-12-14T09:12:41.922Z,4.10
2017-12-14T09:15:08.272Z,4.00
2017-12-14T09:17:35.294Z,4.00
2017-12-14T09:20:01.679Z,4.00
2017-12-14T09:22:28.744Z,4.10
2017-12-14T09:24:56.254Z,4.20
2017-12-14T09:27:22.645Z,4.20
2017-12-14T09:29:49.871Z,4.30
2017-12-14T09:32:17.198Z,4.30
2017-12-14T09:34:44.250Z,4.30
2017-12-14T09:37:10.602Z,4.30
2017-12-14T09:39:37.016Z,4.30
2017-12-14T09:42:04.178Z,4.20
2017-12-14T09:44:30.526Z,4.20
2017-12-14T09:46:57.774Z,4.20
2017-12-14T09:49:24.134Z,4.20
2017-12-14T09:51:52.180Z,4.20
2017-12-14T09:54:19.238Z,4.20
2017-12-14T09:56:46.410Z,4.30
2017-12-14T09:59:12.762Z,4.20
2017-12-14T10:01:39.890Z,4.20
2017-12-14T10:04:06.262Z,4.20
2017-12-14T10:06:32.610Z,4.20
2017-12-14T10:09:00.431Z,3.90
2017-12-14T10:11:28.019Z,3.80
2017-12-14T10:13:54.375Z,3.80
2017-12-14T10:16:20.798Z,3.70
2017-12-14T10:18:47.514Z,3.70
2017-12-14T10:21:13.876Z,3.60
2017-12-14T10:23:40.318Z,3.60
2017-12-14T10:26:07.550Z,3.60
2017-12-14T10:28:34.595Z,3.50
2017-12-14T10:31:01.858Z,3.40
2017-12-14T10:33:28.944Z,3.70
2017-12-14T10:35:55.386Z,3.70
2017-12-14T10:38:22.490Z,3.80
2017-12-14T10:40:48.847Z,3.80
2017-12-14T10:43:15.200Z,3.80
2017-12-14T10:45:42.537Z,3.90
2017-12-14T10:48:09.594Z,3.80
2017-12-14T10:50:35.942Z,3.90
2017-12-14T10:53:03.211Z,3.90
2017-12-14T10:55:30.391Z,3.90
2017-12-14T10:57:58.313Z,3.90
2017-12-14T11:00:24.716Z,3.90
2017-12-14T11:02:51.821Z,4.10
2017-12-14T11:05:19.034Z,4.10
2017-12-14T11:07:46.111Z,4.00
2017-12-14T11:10:12.470Z,4.10
2017-12-14T11:12:39.570Z,4.20
2017-12-14T11:15:06.966Z,4.20
2017-12-14T11:17:33.310Z,4.20
2017-12-14T11:20:00.366Z,4.10
2017-12-14T11:22:27.832Z,4.00
2017-12-14T11:24:54.196Z,4.10
2017-12-14T11:27:20.598Z,4.10
2017-12-14T11:29:47.869Z,4.10
2017-12-14T11:32:15.740Z,4.10
2017-12-14T11:34:42.895Z,4.10
2017-12-14T11:37:10.165Z,4.20
2017-12-14T11:39:36.528Z,4.10
2017-12-14T11:42:03.716Z,4.10
2017-12-14T11:44:30.392Z,4.10
2017-12-14T11:46:58.456Z,4.10
2017-12-14T11:49:24.894Z,4.10
2017-12-14T11:51:51.264Z,4.10
2017-12-14T11:54:18.293Z,4.10
2017-12-14T11:56:45.458Z,4.10
2017-12-14T11:59:11.840Z,4.10
2017-12-14T12:01:38.217Z,4.20
2017-12-14T12:04:05.372Z,4.20
2017-12-14T12:06:32.540Z,4.30
2017-12-14T12:08:58.892Z,4.30
2017-12-14T12:11:25.306Z,4.30
2017-12-14T12:13:52.032Z,4.30
2017-12-14T12:16:19.002Z,4.30
2017-12-14T12:18:45.384Z,4.30
2017-12-14T12:21:12.511Z,4.50
2017-12-14T12:23:38.911Z,4.50
2017-12-14T12:26:05.990Z,4.50
2017-12-14T12:28:33.232Z,4.50
2017-12-14T12:31:00.504Z,4.50
2017-12-14T12:33:27.556Z,4.40
2017-12-14T12:35:53.913Z,4.50
2017-12-14T12:38:20.286Z,4.40
2017-12-14T12:40:47.484Z,4.50
2017-12-14T12:43:13.872Z,4.40
2017-12-14T12:45:40.228Z,4.40
2017-12-14T12:48:07.519Z,4.40
2017-12-14T12:50:33.888Z,4.40
2017-12-14T12:53:01.939Z,4.50
2017-12-14T12:55:28.316Z,4.50
2017-12-14T12:57:55.421Z,4.50
2017-12-14T13:00:21.808Z,4.50
2017-12-14T13:02:49.632Z,4.50
2017-12-14T13:05:16.014Z,4.50
2017-12-14T13:07:43.125Z,4.60
2017-12-14T13:10:09.864Z,4.60
2017-12-14T13:12:37.840Z,4.50
2017-12-14T13:15:04.208Z,4.50
2017-12-14T13:17:31.352Z,4.60
2017-12-14T13:19:58.634Z,4.50
2017-12-14T13:22:25.767Z,4.50
2017-12-14T13:24:53.104Z,4.50
2017-12-14T13:27:20.364Z,4.50
2017-12-14T13:29:46.745Z,4.40
2017-12-14T13:32:14.668Z,4.50
2017-12-14T13:34:41.032Z,4.50
2017-12-14T13:37:07.448Z,4.50
2017-12-14T13:39:34.093Z,4.50
2017-12-14T13:42:00.488Z,4.50
2017-12-14T13:44:26.992Z,4.50
2017-12-14T13:46:54.334Z,4.50
2017-12-14T13:49:21.697Z,4.50
2017-12-14T13:51:48.840Z,4.50
2017-12-14T13:54:16.708Z,4.50
2017-12-14T13:56:43.916Z,4.40
2017-12-14T13:59:11.125Z,4.40
2017-12-14T14:01:38.216Z,4.40
2017-12-14T14:04:05.332Z,4.20
2017-12-14T14:06:32.792Z,4.20
2017-12-14T14:08:59.152Z,4.20
2017-12-14T14:11:25.498Z,4.20
2017-12-14T14:13:52.933Z,4.10
2017-12-14T14:16:19.314Z,4.10
2017-12-14T14:18:47.240Z,4.10
2017-12-14T14:21:13.637Z,4.10
2017-12-14T14:23:40.736Z,4.00
2017-12-14T14:26:07.895Z,4.00
2017-12-14T14:28:34.267Z,3.90
2017-12-14T14:31:01.401Z,3.90
2017-12-14T14:33:28.432Z,3.90
2017-12-14T14:35:54.816Z,3.90
2017-12-14T14:38:21.936Z,3.80
2017-12-14T14:40:48.674Z,3.80
2017-12-14T14:43:15.046Z,3.80
2017-12-14T14:45:42.597Z,3.80
2017-12-14T14:48:09.933Z,3.80
2017-12-14T14:50:36.296Z,3.70
2017-12-14T14:53:04.038Z,3.70
2017-12-14T14:55:30.390Z,3.70
2017-12-14T14:57:57.664Z,3.80
2017-12-14T15:00:24.806Z,3.70
2017-12-14T15:02:51.175Z,3.70
2017-12-14T15:05:17.545Z,3.70
2017-12-14T15:07:43.882Z,3.70
2017-12-14T15:10:10.287Z,3.60
2017-12-14T15:12:37.800Z,3.70
2017-12-14T15:15:04.167Z,3.70
2017-12-14T15:17:31.220Z,3.70
2017-12-14T15:19:59.364Z,3.70
2017-12-14T15:22:25.725Z,3.70
2017-12-14T15:24:52.752Z,3.70
2017-12-14T15:27:19.087Z,3.70
2017-12-14T15:29:46.143Z,3.70
2017-12-14T15:32:13.396Z,3.70
2017-12-14T15:34:39.733Z,3.70
2017-12-14T15:37:06.065Z,3.80
2017-12-14T15:39:33.344Z,3.80
2017-12-14T15:41:59.684Z,3.80
2017-12-14T15:44:26.181Z,3.80
2017-12-14T15:46:53.461Z,3.90
2017-12-14T15:49:19.784Z,3.90
2017-12-14T15:51:46.852Z,3.90
2017-12-14T15:54:14.919Z,3.90
2017-12-14T15:56:41.932Z,3.90
2017-12-14T15:59:08.268Z,3.90
2017-12-14T16:01:34.596Z,3.90
2017-12-14T16:04:02.341Z,3.90
2017-12-14T16:06:29.383Z,3.90
2017-12-14T16:08:55.734Z,3.90
2017-12-14T16:11:22.060Z,3.80
2017-12-14T16:13:48.794Z,3.80
2017-12-14T16:16:15.124Z,3.80
2017-12-14T16:18:42.188Z,3.80
2017-12-14T16:21:09.448Z,3.70
2017-12-14T16:23:35.800Z,3.70
2017-12-14T16:26:02.151Z,3.70
2017-12-14T16:28:29.334Z,3.60
2017-12-14T16:30:56.319Z,3.60
2017-12-14T16:33:23.478Z,3.70
2017-12-14T16:35:49.816Z,3.60
2017-12-14T16:38:16.966Z,3.60
2017-12-14T16:40:43.919Z,3.60
2017-12-14T16:43:10.248Z,3.60
2017-12-14T16:45:37.513Z,3.60
2017-12-14T16:48:04.669Z,3.60
2017-12-14T16:50:31.016Z,3.60
2017-12-14T16:52:58.365Z,3.60
2017-12-14T16:55:24.701Z,3.60
2017-12-14T16:57:51.855Z,3.60
2017-12-14T17:00:19.010Z,3.60
2017-12-14T17:02:46.346Z,3.70
2017-12-14T17:05:12.698Z,3.70
2017-12-14T17:07:39.047Z,3.70
2017-12-14T17:10:05.444Z,3.80
2017-12-14T17:12:31.831Z,3.80
2017-12-14T17:14:58.974Z,3.80
2017-12-14T17:17:25.311Z,3.80
2017-12-14T17:19:52.356Z,3.80
2017-12-14T17:22:18.700Z,3.80
2017-12-14T17:24:45.053Z,3.80
2017-12-14T17:27:11.780Z,3.70
2017-12-14T17:29:39.240Z,3.70
2017-12-14T17:32:06.503Z,3.70
2017-12-14T17:34:32.864Z,3.70
2017-12-14T17:36:59.887Z,3.70
2017-12-14T17:39:26.236Z,3.70
2017-12-14T17:41:53.484Z,3.70
2017-12-14T17:44:19.828Z,3.70
2017-12-14T17:46:46.186Z,3.70
2017-12-14T17:49:14.239Z,3.80
2017-12-14T17:51:41.348Z,3.70
2017-12-14T17:54:08.295Z,3.80
2017-12-14T17:56:35.396Z,3.80
2017-12-14T17:59:01.732Z,3.80
2017-12-14T18:01:28.078Z,3.90
2017-12-14T18:03:55.015Z,3.90
2017-12-14T18:06:21.359Z,3.90
2017-12-14T18:08:49.284Z,3.90
2017-12-14T18:11:15.652Z,3.90
2017-12-14T18:13:42.855Z,3.90
2017-12-14T18:16:09.936Z,3.90
2017-12-14T18:18:51.812Z,3.90
2017-12-14T18:21:18.916Z,3.90
2017-12-14T18:23:45.271Z,3.90
2017-12-14T18:26:11.608Z,3.90
2017-12-14T18:28:38.331Z,4.00
2017-12-14T18:31:04.692Z,4.00
2017-12-14T18:33:31.823Z,4.00
2017-12-14T18:35:58.980Z,4.00
2017-12-14T18:38:25.344Z,4.00
2017-12-14T18:40:52.672Z,4.00
2017-12-14T18:43:19.040Z,4.00
2017-12-14T18:45:46.935Z,4.00
2017-12-14T18:48:14.244Z,4.00
2017-12-14T18:50:40.599Z,4.00
2017-12-14T18:53:07.758Z,4.10
2017-12-14T18:55:34.127Z,4.00
2017-12-14T18:58:01.431Z,4.10
2017-12-14T19:00:28.583Z,4.20
2017-12-14T19:02:55.845Z,4.20
2017-12-14T19:05:22.247Z,4.30
2017-12-14T19:07:48.640Z,4.40
2017-12-14T19:10:16.116Z,4.40
2017-12-14T19:12:43.269Z,4.50
2017-12-14T19:15:10.412Z,4.50
2017-12-14T19:17:37.448Z,4.40
2017-12-14T19:20:03.829Z,4.50
2017-12-14T19:22:30.999Z,4.40
2017-12-14T19:24:57.679Z,4.40
2017-12-14T19:27:24.089Z,4.40
2017-12-14T19:29:51.173Z,4.40
2017-12-14T19:32:18.632Z,4.40
2017-12-14T19:34:45.164Z,4.40
2017-12-14T19:37:12.332Z,4.40
2017-12-14T19:39:39.708Z,4.40
2017-12-14T19:42:06.256Z,4.40
2017-12-14T19:44:34.161Z,4.40
2017-12-14T19:47:02.180Z,4.40
2017-12-14T19:49:30.101Z,4.30
2017-12-14T19:51:57.512Z,4.30
2017-12-14T19:54:24.890Z,4.30
2017-12-14T19:56:52.853Z,4.30
2017-12-14T19:59:20.628Z,4.30
2017-12-14T20:01:48.284Z,4.30
2017-12-14T20:04:15.965Z,4.30
2017-12-14T20:06:44.428Z,4.30
2017-12-14T20:09:12.638Z,4.30
2017-12-14T20:11:41.296Z,4.30
2017-12-14T20:14:08.863Z,4.30
2017-12-14T20:16:36.233Z,4.30
2017-12-14T20:19:03.394Z,4.30
2017-12-14T20:21:30.439Z,4.30
2017-12-14T20:23:57.725Z,4.30
2017-12-14T20:26:25.698Z,4.30
2017-12-14T20:28:54.448Z,4.20
2017-12-14T20:31:21.494Z,4.30
2017-12-14T20:33:48.672Z,4.20
2017-12-14T20:36:16.026Z,4.30
2017-12-14T20:38:43.387Z,4.30
2017-12-14T20:41:10.564Z,4.30
2017-12-14T20:43:38.055Z,4.30
2017-12-14T20:46:21.160Z,4.30
2017-12-14T20:48:49.022Z,4.30
2017-12-14T20:51:16.996Z,4.20
2017-12-14T20:53:44.444Z,4.30
2017-12-14T20:56:11.516Z,4.30
2017-12-14T20:58:39.352Z,4.20
2017-12-14T21:01:06.511Z,4.20
2017-12-14T21:03:33.686Z,4.20
2017-12-14T21:06:01.231Z,4.20
2017-12-14T21:08:28.388Z,4.20
2017-12-14T21:10:55.748Z,4.20
2017-12-14T21:13:22.871Z,4.20
2017-12-14T21:15:50.664Z,4.20
2017-12-14T21:18:18.231Z,4.20
2017-12-14T21:20:45.423Z,4.10
2017-12-14T21:23:13.268Z,4.00
2017-12-14T21:25:40.417Z,4.00
2017-12-14T21:28:07.572Z,4.00
2017-12-14T21:30:35.762Z,3.90
2017-12-14T21:33:03.823Z,3.90
2017-12-14T21:35:30.980Z,4.00
2017-12-14T21:37:58.135Z,3.90
2017-12-14T21:40:25.188Z,3.80
2017-12-14T21:42:53.060Z,3.80
2017-12-14T21:45:20.225Z,3.80
2017-12-14T21:47:47.570Z,3.90
2017-12-14T21:50:15.443Z,3.80
2017-12-14T21:52:43.423Z,3.80
2017-12-14T21:55:10.819Z,3.80
2017-12-14T21:57:38.861Z,3.80
2017-12-14T22:00:05.965Z,3.80
2017-12-14T22:02:33.164Z,3.80
2017-12-14T22:05:00.953Z,3.80
2017-12-14T22:07:28.148Z,3.80
2017-12-14T22:09:55.350Z,3.80
2017-12-14T22:12:22.604Z,3.70
2017-12-14T22:14:49.979Z,3.80
2017-12-14T22:17:17.321Z,3.80
2017-12-14T22:19:44.729Z,3.80
2017-12-14T22:22:11.943Z,3.70
2017-12-14T22:24:38.996Z,3.70
2017-12-14T22:27:06.321Z,3.70
2017-12-14T22:29:33.467Z,3.70
2017-12-14T22:32:00.556Z,3.70
2017-12-14T22:34:27.619Z,3.70
2017-12-14T22:36:54.729Z,3.70
2017-12-14T22:39:22.741Z,3.80
2017-12-14T22:41:49.796Z,3.80
2017-12-14T22:44:16.771Z,3.80
2017-12-14T22:46:43.791Z,3.80
2017-12-14T22:49:11.158Z,3.80
2017-12-14T22:51:39.001Z,3.90
2017-12-14T22:54:06.084Z,3.80
2017-12-14T22:56:33.342Z,3.90
2017-12-14T22:59:00.603Z,3.90
2017-12-14T23:01:28.590Z,3.80
2017-12-14T23:03:55.723Z,3.80
2017-12-14T23:06:22.791Z,3.80
2017-12-14T23:08:49.781Z,3.70
2017-12-14T23:11:16.991Z,3.70
2017-12-14T23:13:44.139Z,3.70
2017-12-14T23:16:11.249Z,3.70
2017-12-14T23:18:38.351Z,3.70
2017-12-14T23:21:05.404Z,3.70
2017-12-14T23:23:33.171Z,3.70
2017-12-14T23:26:01.260Z,3.60
2017-12-14T23:28:28.306Z,3.70
2017-12-14T23:30:55.660Z,3.60
2017-12-14T23:33:22.815Z,3.60
2017-12-14T23:35:49.870Z,3.60
2017-12-14T23:38:17.132Z,3.60
2017-12-14T23:40:44.181Z,3.60
2017-12-14T23:43:11.439Z,3.60
2017-12-14T23:45:39.209Z,3.50
2017-12-14T23:48:06.255Z,3.50
2017-12-14T23:50:34.414Z,3.40
2017-12-14T23:53:01.388Z,3.40
2017-12-14T23:55:28.540Z,3.40
2017-12-14T23:57:56.623Z,3.30
